• Join FlightAware (Why Join?)
  • Login
  • US Flag 
08:19AM EDT


 

Airport Tracker/Info


-or-


 

Live Flight TrackerFlight Track Log ✈ DAL109 ✈ 22-Jul-2013 ✈ LEMD / MAD - KATL

Flight Track Log - Related Links

Times and Time Zones

All times are in EDT time to prevent confusion due to time zone crossing. See the DAL109 flight status page for this flight to view local times or setup timezone preferences in your user account.

Time Position Orientation Groundspeed Altitude Reporting Facility
EDT Latitude Longitude Course Direction KTS MPH feet Rate Location/Type
05:04AM 40.4620 -3.5750 North 2 2  Level FlightAware
05:04AM 40.4610 -3.5750 180° South 2 2 60 Level FlightAware
05:05AM 40.4610 -3.5740 90° East 9 10 120 Level FlightAware
05:06AM 40.4610 -3.5750 270° West 120 Level FlightAware
05:08AM 40.4610 -3.5740 90° East 20 23 120 Level FlightAware
05:09AM 40.4620 -3.5730 37° Northeast 21 24 120 Level FlightAware
05:09AM 40.4610 -3.5720 143° Southeast 30 35 120 Level FlightAware
05:10AM 40.4600 -3.5710 143° Southeast 15 17 120 Level FlightAware
05:10AM 40.4600 -3.5690 90° East 24 28 120 Level FlightAware
05:10AM 40.4610 -3.5680 37° Northeast 25 29 120 Level FlightAware
05:11AM 40.4620 -3.5680 360° North 28 32 180 Level FlightAware
05:12AM 40.4640 -3.5670 21° North 30 35 180 Level FlightAware
05:12AM 40.4660 -3.5670 360° North 15 17 180 Level FlightAware
05:13AM 40.4680 -3.5670 360° North 15 17 180 Level FlightAware
05:13AM 40.4690 -3.5670 360° North 16 18 180 Level FlightAware
05:14AM 40.4720 -3.5670 360° North 16 18 180 Level FlightAware
05:15AM 40.4750 -3.5700 323° Northwest 31 36 240 Level FlightAware
05:15AM 40.4760 -3.5710 323° Northwest 17 20 240 Level FlightAware
05:16AM 40.4790 -3.5750 315° West 17 20 240 Level FlightAware
05:17AM 40.4850 -3.5810 323° Northwest 19 22 300 Level FlightAware
05:18AM 40.4880 -3.5820 346° North 31 36 420 Level FlightAware
05:19AM 40.4890 -3.5810 37° Northeast 30 35 480 Level FlightAware
05:20AM 40.4890 -3.5770 90° East 28 32 540 Level FlightAware
05:20AM 40.4940 -3.5770 360° North 30 35 720 Level FlightAware
05:22AM 40.5030 -3.5760 North 140 161 960 Level FlightAware
05:22AM 40.5130 -3.5760 360° North 175 201 4,080 Level FlightAware
05:23AM 40.5300 -3.5760 360° North 206 237 2,200 5,340 Climbing FlightAware
05:23AM 40.5390 -3.5760 360° North 212 244 2,500 2,280 Climbing FlightAware
05:23AM 40.5640 -3.5790 355° North 220 253 3,500 2,400 Climbing FlightAware
05:23AM 40.5760 -3.5930 318° Northwest 226 260 4,100 2,160 Climbing FlightAware
05:24AM 40.5930 -3.6230 307° West 224 258 5,100 1,380 Climbing FlightAware
05:24AM 40.6150 -3.6520 315° West 258 297 5,400 900 Climbing FlightAware
05:25AM 40.6370 -3.6730 324° Northwest 274 315 5,900 1,620 Climbing FlightAware
05:25AM 40.6610 -3.6760 355° North 285 328 6,500 2,160 Climbing FlightAware
05:25AM 40.6980 -3.6710 North 291 335 7,500 2,280 Climbing FlightAware
05:26AM 40.7160 -3.6690 North 292 336 8,100 2,340 Climbing FlightAware
05:26AM 40.7480 -3.6640 North 294 338 9,000 2,220 Climbing FlightAware
05:27AM 40.7890 -3.6890 335° Northwest 291 335 10,300 1,680 Climbing FlightAware
05:27AM 40.8180 -3.7530 301° West 327 376 11,100 1,440 Climbing FlightAware
05:28AM 40.8430 -3.8150 298° West 346 398 12,100 2,280 Climbing FlightAware
05:29AM 40.8760 -3.8950 299° West 341 392 14,100 2,340 Climbing FlightAware
05:29AM 40.9080 -3.9730 299° West 349 402 15,500 1,980 Climbing FlightAware
05:30AM 40.9350 -4.0390 298° West 353 406 16,700 1,440 Climbing FlightAware
05:31AM 40.9680 -4.1180 299° West 382 440 17,300 840 Climbing FlightAware
05:31AM 41.0070 -4.2120 299° West 413 475 17,900 900 Climbing FlightAware
05:32AM 41.0430 -4.3080 296° West 437 503 18,600 1,020 Climbing FlightAware
05:33AM 41.0810 -4.4100 296° West 455 524 19,400 1,320 Climbing FlightAware
05:33AM 41.1200 -4.5180 296° West 463 533 20,500 1,560 Climbing FlightAware
05:34AM 41.1620 -4.6320 296° West 470 541 21,700 1,560 Climbing FlightAware
05:35AM 41.2010 -4.7380 296° West 476 548 22,700 1,380 Climbing FlightAware
05:36AM 41.2420 -4.8520 296° West 481 554 23,700 1,620 Climbing FlightAware
05:36AM 41.2810 -4.9590 296° West 476 548 25,000 960 Climbing FlightAware
05:37AM 41.3110 -5.0450 295° West 476 548 25,000  Level FlightAware
05:38AM 41.3500 -5.1560 295° West 476 548 25,000  Level FlightAware
05:38AM 41.3780 -5.2370 295° West 476 548 25,000  Level FlightAware
05:39AM 41.4160 -5.3460 295° West 476 548 25,000 3,480 Level FlightAware
05:40AM 41.4730 -5.4940 297° West 454 522 30,000 3,780 Climbing FlightAware
05:40AM 41.5040 -5.6130 289° West 445 512 30,300 660 Climbing FlightAware
05:41AM 41.4790 -5.7140 252° West 436 502 31,000 540 Climbing FlightAware
05:42AM 41.4380 -5.7890 234° Southwest 434 499 31,000  Level FlightAware
05:42AM 41.3830 -5.8860 233° Southwest 432 497 31,000  Level FlightAware
05:43AM 41.3350 -5.9710 233° Southwest 432 497 31,000  Level FlightAware
05:44AM 41.2870 -6.0570 233° Southwest 433 498 31,000  Level FlightAware
05:44AM 41.2480 -6.1320 235° Southwest 432 497 31,000  Level FlightAware
05:45AM 41.2410 -6.1720 257° West 435 501 31,000  Level FlightAware
05:45AM 41.2350 -6.2760 266° West 438 504 31,000  Level FlightAware
05:46AM 41.2360 -6.3800 271° West 440 506 31,000  Level FlightAware
05:47AM 41.2380 -6.5070 271° West 440 506 31,000  Level FlightAware
05:47AM 41.2390 -6.6150 271° West 439 505 31,000  Level FlightAware
05:48AM 41.2390 -6.7230 270° West 439 505 31,000  Level FlightAware
05:49AM 41.2390 -6.8440 270° West 439 505 31,000  Level FlightAware
05:49AM 41.2390 -6.9510 270° West 438 504 31,000  Level FlightAware
05:50AM 41.2400 -7.0590 271° West 438 504 31,000  Level FlightAware
05:51AM 41.2400 -7.1610 270° West 437 503 31,000  Level FlightAware
05:51AM 41.2410 -7.2580 271° West 436 502 31,000  Level FlightAware
05:52AM 41.2410 -7.3760 270° West 436 502 31,000  Level FlightAware
05:53AM 41.2410 -7.4860 270° West 436 502 31,000  Level FlightAware
05:54AM 41.2410 -7.6330 270° West 437 503 31,000  Level FlightAware
05:55AM 41.2400 -7.7790 270° West 438 504 31,000  Level FlightAware
05:55AM 41.2400 -7.8880 270° West 438 504 31,000  Level FlightAware
05:56AM 41.2400 -7.9750 270° West 439 505 31,000  Level FlightAware
05:57AM 41.2390 -8.0980 269° West 439 505 31,000  Level FlightAware
05:58AM 41.2380 -8.2900 270° West 439 505 31,000  Level FlightAware
05:58AM 41.2380 -8.3990 270° West 440 506 31,000  Level FlightAware
05:59AM 41.2370 -8.5020 269° West 441 507 31,000  Level FlightAware
06:00AM 41.2350 -8.6790 269° West 442 509 31,000  Level FlightAware
06:01AM 41.2340 -8.7730 269° West 442 509 31,000  Level FlightAware
06:02AM 41.2330 -8.8860 269° West 442 509 31,000  Level FlightAware
06:02AM 41.2320 -8.9990 269° West 443 510 31,000  Level FlightAware
06:03AM 41.2300 -9.1190 269° West 442 509 31,000  Level FlightAware
06:04AM 41.2290 -9.2250 269° West 442 509 31,000  Level FlightAware
06:04AM 41.2280 -9.3380 269° West 442 509 31,000  Level FlightAware
06:05AM 41.2300 -9.4510 271° West 445 512 31,000  Level FlightAware
06:06AM 41.2350 -9.5570 274° West 444 511 31,000  Level FlightAware
06:07AM 41.2430 -9.7050 274° West 446 513 31,000  Level FlightAware
06:07AM 41.2480 -9.8340 273° West 446 513 31,000  Level FlightAware
06:08AM 41.2520 -9.9690 272° West 444 511 31,000  Level FlightAware
06:09AM 41.2500 -10.0910 269° West 443 510 31,000  Level FlightAware
06:10AM 41.2470 -10.1970 268° West 443 510 31,000  Level FlightAware
06:10AM 41.2430 -10.3180 268° West 442 509 31,000  Level FlightAware
06:11AM 41.2390 -10.4310 267° West 441 507 31,000  Level FlightAware
06:12AM 41.2360 -10.5380 268° West 440 506 31,000  Level FlightAware
06:13AM 41.2310 -10.6920 268° West 438 504 31,000  Level FlightAware
06:13AM 41.2270 -10.8050 267° West 437 503 31,000  Level FlightAware
06:14AM 41.2220 -10.9440 267° West 439 505 31,000  Level FlightAware
06:15AM 41.2180 -11.0580 267° West 443 510 31,000  Level FlightAware
06:16AM 41.2120 -11.2090 267° West 445 512 31,000  Level FlightAware
06:17AM 41.2050 -11.4030 267° West 449 517 31,000  Level FlightAware
06:18AM 41.1980 -11.5680 267° West 451 519 31,000  Level FlightAware
06:19AM 41.1940 -11.6620 267° West 451 519 31,000  Level FlightAware
06:19AM 41.1910 -11.7470 267° West 451 519 31,000  Level FlightAware
06:20AM 41.1870 -11.8390 267° West 451 519 31,000  Level FlightAware
06:21AM 41.1830 -11.9520 267° West 451 519 31,000  Level FlightAware
06:21AM 41.1730 -12.1320 266° West 452 520 31,000  Level FlightAware
06:23AM 41.1640 -12.3160 266° West 451 519 31,000  Level FlightAware
06:24AM 41.1570 -12.4690 267° West 451 519 31,000  Level FlightAware
06:24AM 41.1520 -12.5560 266° West 451 519 31,000  Level FlightAware
06:25AM 41.1460 -12.6680 266° West 451 519 31,000  Level FlightAware
06:26AM 41.1420 -12.7530 266° West 451 519 31,000  Level FlightAware
06:26AM 41.1370 -12.8400 266° West 451 519 31,000  Level FlightAware
06:27AM 41.1310 -12.9530 266° West 451 519 31,000  Level FlightAware
06:28AM 41.1240 -13.0940 266° West 451 519 31,000  Level FlightAware
06:29AM 41.1190 -13.1780 266° West 451 519 31,000  Level FlightAware
06:29AM 41.1140 -13.2700 266° West 451 519 31,000  Level FlightAware
06:30AM 41.1100 -13.3570 267° West 451 519 31,000  Level FlightAware
06:31AM 41.1040 -13.4690 266° West 451 519 31,000  Level FlightAware
06:31AM 41.0990 -13.5560 266° West 451 519 31,000  Level FlightAware
06:32AM 41.0950 -13.6410 266° West 451 519 31,000  Level FlightAware
06:33AM 41.0900 -13.7300 266° West 451 519 31,000  Level FlightAware
06:35AM 41.0675 -14.0668 265° West  Level FlightAware Approximate
06:36AM 41.0558 -14.2365 265° West  Level FlightAware Approximate
06:37AM 41.0438 -14.4062 265° West  Level FlightAware Approximate
06:38AM 41.0316 -14.5758 265° West  Level FlightAware Approximate
06:39AM 41.0192 -14.7453 264° West  Level FlightAware Approximate
06:40AM 41.0065 -14.9148 264° West  Level FlightAware Approximate
06:41AM 40.9854 -15.0829 257° West  Level FlightAware Approximate
06:42AM 40.9560 -15.2486 257° West  Level FlightAware Approximate
06:43AM 40.9264 -15.4142 257° West  Level FlightAware Approximate
06:44AM 40.8966 -15.5796 257° West  Level FlightAware Approximate
06:45AM 40.8665 -15.7448 257° West  Level FlightAware Approximate
06:46AM 40.8362 -15.9099 256° West  Level FlightAware Approximate
06:47AM 40.8056 -16.0749 256° West  Level FlightAware Approximate
06:48AM 40.7748 -16.2397 256° West  Level FlightAware Approximate
06:49AM 40.7438 -16.4043 256° West  Level FlightAware Approximate
06:50AM 40.7126 -16.5688 256° West  Level FlightAware Approximate
06:51AM 40.6811 -16.7332 256° West  Level FlightAware Approximate
06:52AM 40.6494 -16.8973 256° West  Level FlightAware Approximate
06:53AM 40.6174 -17.0613 256° West  Level FlightAware Approximate
06:54AM 40.5852 -17.2252 256° West  Level FlightAware Approximate
06:55AM 40.5528 -17.3889 255° West  Level FlightAware Approximate
06:56AM 40.5202 -17.5525 255° West  Level FlightAware Approximate
06:57AM 40.4873 -17.7159 255° West  Level FlightAware Approximate
06:58AM 40.4542 -17.8791 255° West  Level FlightAware Approximate
06:59AM 40.4208 -18.0422 255° West  Level FlightAware Approximate
07:00AM 40.3873 -18.2051 255° West  Level FlightAware Approximate
07:01AM 40.3535 -18.3678 255° West  Level FlightAware Approximate
07:02AM 40.3195 -18.5304 255° West  Level FlightAware Approximate
07:03AM 40.2852 -18.6928 255° West  Level FlightAware Approximate
07:04AM 40.2508 -18.8550 254° West  Level FlightAware Approximate
07:05AM 40.2161 -19.0171 254° West  Level FlightAware Approximate
07:06AM 40.1811 -19.1790 254° West  Level FlightAware Approximate
07:07AM 40.1460 -19.3408 254° West  Level FlightAware Approximate
07:08AM 40.1106 -19.5024 254° West  Level FlightAware Approximate
07:09AM 40.0750 -19.6638 254° West  Level FlightAware Approximate
07:10AM 40.0392 -19.8250 254° West  Level FlightAware Approximate
07:11AM 40.0031 -19.9861 254° West  Level FlightAware Approximate
07:12AM 39.9770 -20.1502 259° West  Level FlightAware Approximate
07:13AM 39.9516 -20.3146 259° West  Level FlightAware Approximate
07:14AM 39.9260 -20.4788 259° West  Level FlightAware Approximate
07:15AM 39.9002 -20.6430 258° West  Level FlightAware Approximate
07:16AM 39.8741 -20.8070 258° West  Level FlightAware Approximate
07:17AM 39.8478 -20.9708 258° West  Level FlightAware Approximate
07:18AM 39.8212 -21.1346 258° West  Level FlightAware Approximate
07:19AM 39.7944 -21.2982 258° West  Level FlightAware Approximate
07:20AM 39.7674 -21.4617 258° West  Level FlightAware Approximate
07:21AM 39.7402 -21.6250 258° West  Level FlightAware Approximate
07:22AM 39.7128 -21.7883 258° West  Level FlightAware Approximate
07:23AM 39.6851 -21.9514 258° West  Level FlightAware Approximate
07:24AM 39.6572 -22.1143 258° West  Level FlightAware Approximate
07:25AM 39.6290 -22.2772 257° West  Level FlightAware Approximate
07:25AM 39.6450 -22.1300 257° West 456 525 31,000  Level FlightAware
07:26AM 39.6006 -22.4399 257° West  Level FlightAware Approximate
07:26AM 39.6260 -22.2390 257° West 456 525 31,000  Level FlightAware
07:27AM 39.5980 -22.4060 258° West 457 526 31,000  Level FlightAware
07:28AM 39.5780 -22.5180 257° West 457 526 31,000  Level FlightAware
07:28AM 39.5590 -22.6280 257° West 458 527 31,000  Level FlightAware
07:29AM 39.5270 -22.8090 257° West 458 527 31,000  Level FlightAware
07:30AM 39.5020 -22.9490 257° West 458 527 31,000  Level FlightAware
07:31AM 39.4770 -23.0850 257° West 460 529 31,000  Level FlightAware
07:32AM 39.4580 -23.1890 257° West 460 529 31,000  Level FlightAware
07:32AM 39.4350 -23.3140 257° West 461 531 31,000  Level FlightAware
07:33AM 39.4190 -23.4010 257° West 461 531 31,000  Level FlightAware
07:34AM 39.3940 -23.5380 257° West 462 532 31,000  Level FlightAware
07:34AM 39.3720 -23.6570 257° West 464 534 31,000  Level FlightAware
07:35AM 39.3440 -23.8070 256° West 465 535 31,000  Level FlightAware
07:36AM 39.3330 -23.8680 257° West 465 535 31,000  Level FlightAware
07:37AM 39.3030 -24.0230 256° West 466 536 31,000  Level FlightAware
07:37AM 39.2930 -24.0760 256° West 466 536 31,000  Level FlightAware
07:38AM 39.2630 -24.2360 256° West 466 536 31,000  Level FlightAware
07:39AM 39.2220 -24.4480 256° West 466 536 31,000  Level FlightAware
07:40AM 39.2120 -24.4980 256° West 467 537 31,000  Level FlightAware
07:40AM 39.1870 -24.6270 256° West 468 539 31,000  Level FlightAware
07:41AM 39.1670 -24.7270 256° West 469 540 31,000  Level FlightAware
07:42AM 39.1410 -24.8600 256° West 469 540 31,000  Level FlightAware
07:43AM 39.1180 -24.9730 255° West 469 540 31,000 480 Level FlightAware
07:44AM 39.0820 -25.1570 256° West 467 537 31,900 720 Climbing FlightAware
07:44AM 39.0720 -25.2060 255° West 468 539 32,000 60 Climbing FlightAware
07:45AM 39.0320 -25.4030 255° West 468 539 32,000  Level FlightAware
07:46AM 39.0120 -25.5020 255° West 464 534 32,000  Level FlightAware
07:47AM 38.9910 -25.6060 255° West 460 529 32,000  Level FlightAware
07:47AM 38.9580 -25.7650 255° West 457 526 32,000  Level FlightAware
07:48AM 38.9360 -25.8710 255° West 455 524 32,000  Level FlightAware
07:49AM 38.9110 -25.9890 255° West 455 524 32,000  Level FlightAware
07:49AM 38.8900 -26.0940 256° West 455 524 32,000  Level FlightAware
07:50AM 38.8680 -26.1990 255° West 453 521 32,000  Level FlightAware
07:51AM 38.8450 -26.3020 254° West 455 524 32,000  Level FlightAware
07:51AM 38.8210 -26.4200 255° West 455 524 32,000  Level FlightAware
07:52AM 38.7960 -26.5370 255° West 455 524 32,000  Level FlightAware
07:53AM 38.7710 -26.6530 255° West 456 525 32,000  Level FlightAware
07:54AM 38.7480 -26.7590 254° West 458 527 32,000  Level FlightAware
07:54AM 38.7250 -26.8660 255° West 460 529 32,000  Level FlightAware
07:55AM 38.6990 -26.9850 254° West 463 533 32,000  Level FlightAware
07:56AM 38.6750 -27.0900 254° West 464 534 32,000  Level FlightAware
07:56AM 38.6570 -27.1740 255° West 466 536 32,000  Level FlightAware
07:57AM 38.6350 -27.2720 254° West 467 537 32,000  Level FlightAware
07:58AM 38.5940 -27.4560 254° West 468 539 32,000  Level FlightAware
07:59AM 38.5680 -27.5740 254° West 469 540 32,000  Level FlightAware
07:59AM 38.5440 -27.6820 254° West 469 540 32,000  Level FlightAware
08:00AM 38.5170 -27.8000 254° West 469 540 32,000  Level FlightAware
08:01AM 38.4930 -27.9060 254° West 469 540 32,000  Level FlightAware
08:02AM 38.4690 -28.0110 254° West 470 541 32,000  Level FlightAware
08:02AM 38.4410 -28.1320 254° West 469 540 32,000  Level FlightAware
08:03AM 38.4130 -28.2520 253° West 470 541 32,000  Level FlightAware
08:04AM 38.3890 -28.3560 254° West 468 539 32,000  Level FlightAware
08:04AM 38.3650 -28.4570 253° West 468 539 32,000  Level FlightAware
08:05AM 38.3420 -28.5550 253° West 466 536 32,000  Level FlightAware
08:06AM 38.3140 -28.6740 253° West 465 535 32,000  Level FlightAware
08:06AM 38.2900 -28.7760 253° West 467 537 32,000  Level FlightAware
08:07AM 38.2680 -28.8700 253° West 465 535 32,000  Level FlightAware
08:08AM 38.2400 -28.9860 253° West 466 536 32,000  Level FlightAware
08:08AM 38.2180 -29.0800 253° West 465 535 32,000  Level FlightAware
08:09AM 38.1890 -29.1980 253° West 465 535 32,000  Level FlightAware
08:10AM 38.1600 -29.3180 253° West 465 535 32,000  Level FlightAware
08:10AM 38.1380 -29.4090 253° West 465 535 32,000  Level FlightAware
08:11AM 38.1130 -29.5120 253° West 465 535 32,000  Level FlightAware
08:12AM 38.0860 -29.6240 253° West 468 539 32,000  Level FlightAware
08:13AM 38.0520 -29.7610 253° West 466 536 32,000  Level FlightAware
08:13AM 38.0220 -29.8800 252° West 467 537 32,000  Level FlightAware
08:14AM 37.9970 -29.9850 253° West 467 537 32,000  Level FlightAware
08:15AM 37.9780 -30.0920 257° West 466 536 32,000  Level FlightAware
08:15AM 37.9590 -30.2140 259° West 468 539 32,000  Level FlightAware
08:16AM 37.9430 -30.3180 259° West 468 539 32,000  Level FlightAware
08:17AM 37.9320 -30.3850 258° West 468 539 32,000  Level FlightAware
08:19AM 37.8842 -30.6857 259° West  Level FlightAware Approximate
08:19AM 37.8790 -30.7230 259° West 32,000  Level FlightAware
08:19AM 37.8610 -30.8330 258° West 470 541 32,000  Level FlightAware
08:20AM 37.8420 -30.9510 259° West 471 542 32,000  Level FlightAware
08:21AM 37.8230 -31.0630 258° West 471 542 32,000  Level FlightAware
08:21AM 37.8080 -31.1530 258° West 471 542 32,000  Level FlightAware
08:22AM 37.7900 -31.2630 258° West 471 542 32,000  Level FlightAware
08:23AM 37.7760 -31.3450 258° West 471 542 32,000  Level FlightAware
08:23AM 37.7620 -31.4300 258° West 471 542 32,000  Level FlightAware
08:24AM 37.7480 -31.5150 258° West 471 542 32,000  Level FlightAware
08:27AM 37.6796 -31.9174 258° West  Level FlightAware Approximate
08:28AM 37.6523 -32.0760 258° West  Level FlightAware Approximate
08:29AM 37.6247 -32.2345 258° West  Level FlightAware Approximate
08:30AM 37.5969 -32.3929 258° West  Level FlightAware Approximate
08:31AM 37.5690 -32.5512 257° West  Level FlightAware Approximate
08:32AM 37.5407 -32.7093 257° West  Level FlightAware Approximate
08:33AM 37.5123 -32.8673 257° West  Level FlightAware Approximate
08:34AM 37.4837 -33.0252 257° West  Level FlightAware Approximate
08:35AM 37.4549 -33.1830 257° West  Level FlightAware Approximate
08:36AM 37.4258 -33.3407 257° West  Level FlightAware Approximate
08:37AM 37.3966 -33.4982 257° West  Level FlightAware Approximate
08:38AM 37.3671 -33.6557 257° West  Level FlightAware Approximate
08:39AM 37.3375 -33.8130 257° West  Level FlightAware Approximate
08:40AM 37.3076 -33.9701 257° West  Level FlightAware Approximate
08:41AM 37.2775 -34.1272 257° West  Level FlightAware Approximate
08:42AM 37.2472 -34.2841 256° West  Level FlightAware Approximate
08:43AM 37.2167 -34.4409 256° West  Level FlightAware Approximate
08:44AM 37.1860 -34.5976 256° West  Level FlightAware Approximate
08:45AM 37.1551 -34.7541 256° West  Level FlightAware Approximate
08:46AM 37.1240 -34.9105 256° West  Level FlightAware Approximate
08:47AM 37.0927 -35.0668 256° West  Level FlightAware Approximate
08:48AM 37.0611 -35.2229 256° West  Level FlightAware Approximate
08:49AM 37.0294 -35.3790 256° West  Level FlightAware Approximate
08:50AM 36.9975 -35.5349 256° West  Level FlightAware Approximate
08:51AM 36.9653 -35.6906 256° West  Level FlightAware Approximate
08:52AM 36.9330 -35.8462 255° West  Level FlightAware Approximate
08:53AM 36.9004 -36.0018 255° West  Level FlightAware Approximate
08:54AM 36.8677 -36.1571 255° West  Level FlightAware Approximate
08:55AM 36.8347 -36.3123 255° West  Level FlightAware Approximate
08:56AM 36.8016 -36.4674 255° West  Level FlightAware Approximate
08:57AM 36.7682 -36.6224 255° West  Level FlightAware Approximate
08:58AM 36.7347 -36.7772 255° West  Level FlightAware Approximate
08:59AM 36.7013 -36.9320 255° West  Level FlightAware Approximate
09:00AM 36.6677 -37.0867 255° West  Level FlightAware Approximate
09:01AM 36.6339 -37.2413 255° West  Level FlightAware Approximate
09:02AM 36.5999 -37.3957 255° West  Level FlightAware Approximate
09:03AM 36.5658 -37.5500 255° West  Level FlightAware Approximate
09:04AM 36.5314 -37.7041 255° West  Level FlightAware Approximate
09:05AM 36.4968 -37.8581 254° West  Level FlightAware Approximate
09:06AM 36.4621 -38.0120 254° West  Level FlightAware Approximate
09:07AM 36.4271 -38.1657 254° West  Level FlightAware Approximate
09:08AM 36.3919 -38.3193 254° West  Level FlightAware Approximate
09:09AM 36.3566 -38.4727 254° West  Level FlightAware Approximate
09:10AM 36.3210 -38.6260 254° West  Level FlightAware Approximate
09:11AM 36.2853 -38.7792 254° West  Level FlightAware Approximate
09:12AM 36.2493 -38.9322 254° West  Level FlightAware Approximate
09:13AM 36.2138 -39.0853 254° West  Level FlightAware Approximate
09:14AM 36.1786 -39.2385 254° West  Level FlightAware Approximate
09:15AM 36.1431 -39.3915 254° West  Level FlightAware Approximate
09:16AM 36.1075 -39.5443 254° West  Level FlightAware Approximate
09:17AM 36.0717 -39.6971 254° West  Level FlightAware Approximate
09:17AM 36.0000 -40.0000 266° West 493 567 32,000  Level New York Oceanic (ODAPS)
09:18AM 36.0357 -39.8497 254° West  Level FlightAware Approximate
09:19AM 35.9999 -40.0022 266° West  Level FlightAware Approximate
09:20AM 35.9906 -40.1606 266° West  Level FlightAware Approximate
09:21AM 35.9812 -40.3190 266° West  Level FlightAware Approximate
09:22AM 35.9715 -40.4774 266° West  Level FlightAware Approximate
09:23AM 35.9375 -41.0101 265° West 493 567 32,000  Level FlightAware Transoceanic
09:24AM 35.9262 -41.1782 265° West 493 567 32,000  Level FlightAware Transoceanic
09:25AM 35.9148 -41.3464 265° West 493 567 32,000  Level FlightAware Transoceanic
09:26AM 35.9030 -41.5145 265° West 493 567 32,000  Level FlightAware Transoceanic
09:27AM 35.8911 -41.6825 265° West 493 567 32,000  Level FlightAware Transoceanic
09:27AM 35.8833 -41.7500 265° West 494 568 32,000  Level New York Oceanic (ODAPS)
09:28AM 35.8789 -41.8505 265° West 493 567 32,000  Level FlightAware Transoceanic
09:29AM 35.8665 -42.0184 265° West 493 567 32,000  Level FlightAware Transoceanic
09:30AM 35.8539 -42.1863 265° West 493 567 32,000  Level FlightAware Transoceanic
09:31AM 35.8410 -42.3541 265° West 493 567 32,000  Level FlightAware Transoceanic
09:32AM 35.8279 -42.5219 264° West 493 567 32,000  Level FlightAware Transoceanic
09:33AM 35.8056 -42.7692 264° West 494 568 32,000  Level FlightAware Transoceanic
09:34AM 35.7918 -42.9389 264° West 494 568 32,000  Level FlightAware Transoceanic
09:35AM 35.7777 -43.1085 264° West 494 568 32,000  Level FlightAware Transoceanic
09:36AM 35.7635 -43.2780 264° West 494 568 32,000  Level FlightAware Transoceanic
09:37AM 35.7489 -43.4475 264° West 494 568 32,000  Level FlightAware Transoceanic
09:38AM 35.7342 -43.6170 264° West 494 568 32,000  Level FlightAware Transoceanic
09:39AM 35.7192 -43.7863 264° West 494 568 32,000  Level FlightAware Transoceanic
09:40AM 35.7040 -43.9556 264° West 494 568 32,000  Level FlightAware Transoceanic
09:41AM 35.6885 -44.1249 264° West 494 568 32,000  Level FlightAware Transoceanic
09:41AM 35.7000 -44.1000 263° West 498 573 32,000  Level New York Oceanic (ODAPS)
09:42AM 35.6728 -44.2940 263° West 494 568 32,000  Level FlightAware Transoceanic
09:43AM 35.6569 -44.4631 263° West 494 568 32,000  Level FlightAware Transoceanic
09:44AM 35.6407 -44.6322 263° West 494 568 32,000  Level FlightAware Transoceanic
09:45AM 35.6243 -44.8011 263° West 494 568 32,000  Level FlightAware Transoceanic
09:46AM 35.6077 -44.9700 263° West 494 568 32,000  Level FlightAware Transoceanic
09:47AM 35.6005 -45.1184 263° West 498 573 32,000  Level FlightAware Transoceanic
09:48AM 35.5830 -45.2879 263° West 498 573 32,000  Level FlightAware Transoceanic
09:49AM 35.5654 -45.4573 263° West 498 573 32,000  Level FlightAware Transoceanic
09:50AM 35.5475 -45.6266 263° West 498 573 32,000  Level FlightAware Transoceanic
09:51AM 35.5294 -45.7959 262° West 498 573 32,000  Level FlightAware Transoceanic
09:52AM 35.5110 -45.9651 262° West 498 573 32,000  Level FlightAware Transoceanic
09:53AM 35.4924 -46.1342 262° West 498 573 32,000  Level FlightAware Transoceanic
09:54AM 35.4735 -46.3032 262° West 498 573 32,000  Level FlightAware Transoceanic
09:55AM 35.4545 -46.4721 262° West 498 573 32,000  Level FlightAware Transoceanic
09:55AM 35.4500 -46.4500 262° West 498 573 32,000  Level New York Oceanic (ODAPS)
09:56AM 35.4352 -46.6410 262° West 498 573 32,000  Level FlightAware Transoceanic
09:57AM 35.4156 -46.8098 262° West 498 573 32,000  Level FlightAware Transoceanic
09:58AM 35.3958 -46.9785 262° West 498 573 32,000  Level FlightAware Transoceanic
09:59AM 35.3758 -47.1471 262° West 498 573 32,000  Level FlightAware Transoceanic
10:00AM 35.3556 -47.3156 262° West 498 573 32,000  Level FlightAware Transoceanic
10:01AM 35.3320 -47.4683 262° West 498 573 32,000  Level FlightAware Transoceanic
10:02AM 35.3115 -47.6377 262° West 498 573 32,000  Level FlightAware Transoceanic
10:03AM 35.2908 -47.8070 261° West 498 573 32,000  Level FlightAware Transoceanic
10:04AM 35.2698 -47.9762 261° West 498 573 32,000  Level FlightAware Transoceanic
10:05AM 35.2486 -48.1454 261° West 498 573 32,000  Level FlightAware Transoceanic
10:06AM 35.2272 -48.3144 261° West 498 573 32,000  Level FlightAware Transoceanic
10:07AM 35.2055 -48.4834 261° West 498 573 32,000  Level FlightAware Transoceanic
10:08AM 35.1836 -48.6523 261° West 498 573 32,000 1,080 Level FlightAware Transoceanic
10:08AM 35.1667 -48.8000 261° West 500 575 34,000  Climbing New York Oceanic (ODAPS)
10:09AM 35.1615 -48.8211 261° West 498 573 32,000 -1,740 Descending FlightAware Transoceanic
10:10AM 35.1391 -48.9898 261° West 498 573 32,000  Level FlightAware Transoceanic
10:11AM 35.1165 -49.1584 261° West 498 573 32,000  Level FlightAware Transoceanic
10:12AM 35.0937 -49.3269 261° West 498 573 32,000  Level FlightAware Transoceanic
10:13AM 35.0706 -49.4953 260° West 498 573 32,000  Level FlightAware Transoceanic
10:14AM 35.0473 -49.6637 260° West 498 573 32,000 960 Level FlightAware Transoceanic
10:15AM 35.0245 -49.8289 260° West 500 575 34,000 960 Climbing FlightAware Transoceanic
10:16AM 35.0000 -50.0000 259° West 500 575 34,000  Level FlightAware Transoceanic
10:16AM 35.0000 -50.0000 259° West 490 564 34,000  Level New York Oceanic (ODAPS)
10:17AM 34.9743 -50.1648 259° West 500 575 34,000  Level FlightAware Transoceanic
10:18AM 34.9484 -50.3296 259° West 500 575 34,000  Level FlightAware Transoceanic
10:19AM 34.9222 -50.4942 259° West 500 575 34,000  Level FlightAware Transoceanic
10:20AM 34.8959 -50.6588 259° West 500 575 34,000  Level FlightAware Transoceanic
10:21AM 34.8693 -50.8232 259° West 500 575 34,000  Level FlightAware Transoceanic
10:22AM 34.8424 -50.9875 259° West 490 564 34,000  Level FlightAware Transoceanic
10:22AM 34.8167 -51.1167 259° West 487 560 34,000  Level New York Oceanic (ODAPS)
10:23AM 34.8154 -51.1518 259° West 490 564 34,000  Level FlightAware Transoceanic
10:24AM 34.7882 -51.3159 259° West 490 564 34,000  Level FlightAware Transoceanic
10:25AM 34.7607 -51.4799 258° West 490 564 34,000  Level FlightAware Transoceanic
10:26AM 34.7330 -51.6438 258° West 490 564 34,000  Level FlightAware Transoceanic
10:27AM 34.7051 -51.8075 258° West 490 564 34,000  Level FlightAware Transoceanic
10:28AM 34.6769 -51.9712 258° West 490 564 34,000  Level FlightAware Transoceanic
10:29AM 34.6284 -52.2274 258° West 487 560 34,000  Level FlightAware Transoceanic
10:30AM 34.6007 -52.3857 258° West 487 560 34,000  Level FlightAware Transoceanic
10:31AM 34.5728 -52.5438 258° West 487 560 34,000  Level FlightAware Transoceanic
10:31AM 34.5833 -52.5500 258° West 490 564 34,000  Level New York Oceanic (ODAPS)
10:32AM 34.5447 -52.7018 258° West 487 560 34,000  Level FlightAware Transoceanic
10:33AM 34.5164 -52.8598 258° West 487 560 34,000  Level FlightAware Transoceanic
10:34AM 34.4878 -53.0176 258° West 487 560 34,000  Level FlightAware Transoceanic
10:35AM 34.4591 -53.1753 257° West 487 560 34,000  Level FlightAware Transoceanic
10:36AM 34.4302 -53.3330 257° West 487 560 34,000  Level FlightAware Transoceanic
10:36AM 34.4167 -53.4167 257° West 491 565 34,000  Level New York Oceanic (ODAPS)
10:37AM 34.4011 -53.4905 257° West 487 560 34,000  Level FlightAware Transoceanic
10:38AM 34.3807 -53.6533 257° West 490 564 34,000  Level FlightAware Transoceanic
10:39AM 34.3509 -53.8104 257° West 490 564 34,000  Level FlightAware Transoceanic
10:40AM 34.3209 -53.9675 257° West 490 564 34,000  Level FlightAware Transoceanic
10:41AM 34.2908 -54.1244 257° West 490 564 34,000  Level FlightAware Transoceanic
10:42AM 34.2604 -54.2812 257° West 490 564 34,000  Level FlightAware Transoceanic
10:43AM 34.2101 -54.5029 257° West 491 565 34,000  Level FlightAware Transoceanic
10:44AM 34.1798 -54.6576 257° West 491 565 34,000  Level FlightAware Transoceanic
10:45AM 34.1493 -54.8123 257° West 491 565 34,000  Level FlightAware Transoceanic
10:46AM 34.1186 -54.9668 256° West 491 565 34,000  Level FlightAware Transoceanic
10:47AM 34.0878 -55.1212 256° West 491 565 34,000  Level FlightAware Transoceanic
10:48AM 34.0567 -55.2755 256° West 491 565 34,000  Level FlightAware Transoceanic
10:49AM 34.0254 -55.4297 256° West 491 565 34,000  Level FlightAware Transoceanic
10:50AM 33.9940 -55.5837 256° West 491 565 34,000  Level FlightAware Transoceanic
10:50AM 33.9833 -55.6667 256° West 491 565 34,000  Level New York Oceanic (ODAPS)
10:51AM 33.9623 -55.7377 256° West 491 565 34,000  Level FlightAware Transoceanic
10:52AM 33.9305 -55.8915 256° West 491 565 34,000  Level FlightAware Transoceanic
10:53AM 33.8985 -56.0452 256° West 491 565 34,000  Level FlightAware Transoceanic
10:54AM 33.8663 -56.1988 256° West 491 565 34,000  Level FlightAware Transoceanic
10:55AM 33.8339 -56.3523 256° West 491 565 34,000  Level FlightAware Transoceanic
10:56AM 33.8013 -56.5057 256° West 491 565 34,000  Level FlightAware Transoceanic
10:57AM 33.7599 -56.7216 255° West 491 565 34,000  Level FlightAware Transoceanic
10:58AM 33.7272 -56.8718 255° West 491 565 34,000  Level FlightAware Transoceanic
10:58AM 33.7000 -56.9500 255° West 483 556 34,000  Level New York Oceanic (ODAPS)
10:59AM 33.6944 -57.0220 255° West 491 565 34,000  Level FlightAware Transoceanic
11:00AM 33.6614 -57.1720 255° West 491 565 34,000  Level FlightAware Transoceanic
11:01AM 33.6282 -57.3219 255° West 491 565 34,000  Level FlightAware Transoceanic
11:02AM 33.5948 -57.4717 255° West 491 565 34,000  Level FlightAware Transoceanic
11:03AM 33.5612 -57.6213 255° West 491 565 34,000  Level FlightAware Transoceanic
11:04AM 33.5275 -57.7709 255° West 491 565 34,000  Level FlightAware Transoceanic
11:04AM 33.5167 -57.7833 255° West 472 543 34,000  Level New York Oceanic (ODAPS)
11:05AM 33.4635 -58.0231 255° West 483 556 34,000  Level FlightAware Transoceanic
11:06AM 33.4290 -58.1759 255° West 483 556 34,000  Level FlightAware Transoceanic
11:07AM 33.3942 -58.3286 255° West 483 556 34,000  Level FlightAware Transoceanic
11:08AM 33.3593 -58.4811 255° West 483 556 34,000  Level FlightAware Transoceanic
11:09AM 33.3242 -58.6336 255° West 483 556 34,000  Level FlightAware Transoceanic
11:10AM 33.3147 -58.6731 255° West 472 543 34,000  Level FlightAware Transoceanic
11:11AM 33.2804 -58.8210 254° West 472 543 34,000  Level FlightAware Transoceanic
11:12AM 33.2460 -58.9688 254° West 472 543 34,000  Level FlightAware Transoceanic
11:13AM 33.2114 -59.1165 254° West 472 543 34,000  Level FlightAware Transoceanic
11:14AM 33.1766 -59.2640 254° West 472 543 34,000  Level FlightAware Transoceanic
11:15AM 33.1416 -59.4115 254° West 472 543 34,000  Level FlightAware Transoceanic
11:16AM 33.1065 -59.5588 254° West 472 543 34,000  Level FlightAware Transoceanic
11:17AM 33.0712 -59.7060 254° West 472 543 34,000  Level FlightAware Transoceanic
11:18AM 33.0357 -59.8530 254° West 472 543 34,000  Level FlightAware Transoceanic
11:18AM 33.0333 -59.8667 253° West 459 528 34,000  Level New York Oceanic (ODAPS)
11:19AM 33.0000 -60.0000 252° West 472 543 34,000  Level FlightAware Transoceanic
11:19AM 33.0000 -60.0000 252° West 468 539 34,000  Level New York Oceanic (ODAPS)
11:20AM 32.9590 -60.1505 252° West 472 543 34,000  Level FlightAware Transoceanic
11:21AM 32.9177 -60.3008 252° West 472 543 34,000  Level FlightAware Transoceanic
11:22AM 32.8763 -60.4511 252° West 472 543 34,000  Level FlightAware Transoceanic
11:23AM 32.8348 -60.6011 252° West 472 543 34,000  Level FlightAware Transoceanic
11:24AM 32.7930 -60.7511 252° West 459 528 34,000  Level FlightAware Transoceanic
11:25AM 32.7511 -60.9008 252° West 468 539 34,000  Level FlightAware Transoceanic
11:26AM 32.7090 -61.0505 251° West 468 539 34,000  Level FlightAware Transoceanic
11:26AM 32.6667 -61.2000 269° West 472 543 34,000  Level New York Oceanic (ODAPS)
11:27AM 32.6667 -61.2000 269° West 468 539 34,000  Level FlightAware Transoceanic
11:28AM 32.6638 -61.3603 269° West 468 539 34,000  Level FlightAware Transoceanic
11:29AM 32.6608 -61.5206 269° West 468 539 34,000  Level FlightAware Transoceanic
11:30AM 32.6576 -61.6808 269° West 468 539 34,000  Level FlightAware Transoceanic
11:31AM 32.6541 -61.8411 268° West 468 539 34,000  Level FlightAware Transoceanic
11:31AM 32.6500 -61.9667 268° West 473 544 34,000  Level New York Oceanic (ODAPS)
11:32AM 32.6505 -62.0014 268° West 468 539 34,000  Level FlightAware Transoceanic
11:33AM 32.6471 -62.1402 268° West 472 543 34,000  Level FlightAware Transoceanic
11:34AM 32.6432 -62.2969 268° West 472 543 34,000  Level FlightAware Transoceanic
11:35AM 32.6390 -62.4535 268° West 472 543 34,000  Level FlightAware Transoceanic
11:36AM 32.6347 -62.6101 268° West 472 543 34,000  Level FlightAware Transoceanic
11:37AM 32.6302 -62.7668 268° West 472 543 34,000  Level FlightAware Transoceanic
11:38AM 32.6249 -62.9090 268° West 473 544 34,000  Level FlightAware Transoceanic
11:39AM 32.6200 -63.0660 268° West 473 544 34,000  Level FlightAware Transoceanic
11:40AM 32.6149 -63.2230 268° West 473 544 34,000  Level FlightAware Transoceanic
11:41AM 32.6096 -63.3800 268° West 473 544 34,000  Level FlightAware Transoceanic
11:42AM 32.6042 -63.5369 268° West 473 544 34,000  Level FlightAware Transoceanic
11:43AM 32.5985 -63.6939 268° West 473 544 34,000  Level FlightAware Transoceanic
11:44AM 32.5927 -63.8508 267° West 473 544 34,000  Level FlightAware Transoceanic
11:45AM 32.5866 -64.0077 267° West 473 544 34,000  Level FlightAware Transoceanic
11:45AM 32.5833 -64.1000 267° West 467 537 34,000  Level New York Oceanic (ODAPS)
11:46AM 32.5804 -64.1645 267° West 473 544 34,000  Level FlightAware Transoceanic
11:47AM 32.5740 -64.3214 267° West 473 544 34,000  Level FlightAware Transoceanic
11:48AM 32.5673 -64.4782 267° West 473 544 34,000  Level FlightAware Transoceanic
11:49AM 32.5605 -64.6350 267° West 473 544 34,000  Level FlightAware Transoceanic
11:50AM 32.5535 -64.7918 267° West 473 544 34,000  Level FlightAware Transoceanic
11:51AM 32.5463 -64.9485 267° West 473 544 34,000  Level FlightAware Transoceanic
11:52AM 32.5432 -65.0203 267° West 467 537 34,000  Level FlightAware Transoceanic
11:53AM 32.5358 -65.1736 267° West 467 537 34,000  Level FlightAware Transoceanic
11:54AM 32.5283 -65.3268 267° West 467 537 34,000  Level FlightAware Transoceanic
11:55AM 32.5206 -65.4801 267° West 467 537 34,000  Level FlightAware Transoceanic
11:56AM 32.5127 -65.6333 266° West 467 537 34,000  Level FlightAware Transoceanic
11:57AM 32.5046 -65.7865 266° West 467 537 34,000  Level FlightAware Transoceanic
11:58AM 32.4963 -65.9397 266° West 467 537 34,000  Level FlightAware Transoceanic
11:59AM 32.4879 -66.0928 266° West 467 537 34,000  Level FlightAware Transoceanic
11:59AM 32.4833 -66.2500 266° West 475 547 34,000  Level New York Oceanic (ODAPS)
12:00PM 32.4792 -66.2459 266° West 467 537 34,000  Level FlightAware Transoceanic
12:01PM 32.4704 -66.3990 266° West 467 537 34,000  Level FlightAware Transoceanic
12:02PM 32.4614 -66.5520 266° West 467 537 34,000  Level FlightAware Transoceanic
12:03PM 32.4522 -66.7050 266° West 467 537 34,000  Level FlightAware Transoceanic
12:04PM 32.4428 -66.8580 266° West 467 537 34,000  Level FlightAware Transoceanic
12:05PM 32.4332 -67.0110 266° West 467 537 34,000  Level FlightAware Transoceanic
12:06PM 32.4154 -67.3187 265° West 475 547 34,000  Level FlightAware Transoceanic
12:07PM 32.4050 -67.4712 265° West 475 547 34,000  Level FlightAware Transoceanic
12:08PM 32.3943 -67.6237 265° West 475 547 34,000  Level FlightAware Transoceanic
12:09PM 32.3835 -67.7762 265° West 475 547 34,000  Level FlightAware Transoceanic
12:10PM 32.3725 -67.9286 265° West 475 547 34,000  Level FlightAware Transoceanic
12:11PM 32.3614 -68.0810 265° West 475 547 34,000  Level FlightAware Transoceanic
12:12PM 32.3500 -68.2333 265° West 475 547 34,000  Level FlightAware Transoceanic
12:12PM 32.3500 -68.2333 265° West 484 557 34,000  Level New York Oceanic (ODAPS)
12:13PM 32.3377 -68.3886 265° West 475 547 34,000  Level FlightAware Transoceanic
12:13PM 32.3333 -68.4500 265° West 484 557 34,000  Level New York Oceanic (ODAPS)
12:14PM 32.3252 -68.5439 265° West 475 547 34,000  Level FlightAware Transoceanic
12:15PM 32.3125 -68.6991 264° West 475 547 34,000  Level FlightAware Transoceanic
12:16PM 32.2996 -68.8543 264° West 475 547 34,000  Level FlightAware Transoceanic
12:17PM 32.2866 -69.0094 264° West 475 547 34,000  Level FlightAware Transoceanic
12:18PM 32.2733 -69.1645 264° West 484 557 34,000  Level FlightAware Transoceanic
12:19PM 32.2556 -69.3742 264° West 484 557 34,000  Level FlightAware Transoceanic
12:20PM 32.2420 -69.5281 264° West 484 557 34,000  Level FlightAware Transoceanic
12:21PM 32.2282 -69.6819 264° West 484 557 34,000  Level FlightAware Transoceanic
12:22PM 32.2142 -69.8357 264° West 484 557 34,000  Level FlightAware Transoceanic
12:23PM 32.2000 -69.9894 264° West 484 557 34,000  Level FlightAware Transoceanic
12:24PM 32.1856 -70.1431 264° West 484 557 34,000  Level FlightAware Transoceanic
12:25PM 32.1711 -70.2967 264° West 484 557 34,000  Level FlightAware Transoceanic
12:26PM 32.1564 -70.4503 263° West 484 557 34,000  Level FlightAware Transoceanic
12:27PM 32.1414 -70.6039 263° West 484 557 34,000  Level FlightAware Transoceanic
12:27PM 32.1500 -70.6667 263° West 477 549 34,000  Level New York Oceanic (ODAPS)
12:28PM 32.1264 -70.7573 263° West 484 557 34,000  Level FlightAware Transoceanic
12:29PM 32.1111 -70.9108 263° West 484 557 34,000  Level FlightAware Transoceanic
12:30PM 32.0956 -71.0642 263° West 484 557 34,000  Level FlightAware Transoceanic
12:31PM 32.0799 -71.2175 263° West 484 557 34,000  Level FlightAware Transoceanic
12:32PM 32.0641 -71.3708 263° West 484 557 34,000  Level FlightAware Transoceanic
12:33PM 32.0550 -71.5779 263° West 477 549 34,000  Level FlightAware Transoceanic
12:34PM 32.0386 -71.7295 263° West 477 549 34,000  Level FlightAware Transoceanic
12:34PM 32.0500 -71.7833 262° West 469 540 34,000  Level New York Oceanic (ODAPS)
12:35PM 32.0219 -71.8812 263° West 477 549 34,000  Level FlightAware Transoceanic
12:36PM 32.0051 -72.0327 263° West 477 549 34,000  Level FlightAware Transoceanic
12:37PM 31.9881 -72.1842 262° West 477 549 34,000  Level FlightAware Transoceanic
12:38PM 31.9709 -72.3357 262° West 477 549 34,000  Level FlightAware Transoceanic
12:39PM 31.9535 -72.4871 262° West 477 549 34,000  Level FlightAware Transoceanic
12:40PM 31.9360 -72.6384 262° West 477 549 34,000  Level FlightAware Transoceanic
12:41PM 31.9271 -72.8328 262° West 469 540 34,000  Level FlightAware Transoceanic
12:41PM 31.9333 -72.8000 262° West 468 539 34,000  Level New York Oceanic (ODAPS)
12:42PM 31.9088 -72.9825 262° West 469 540 34,000  Level FlightAware Transoceanic
12:43PM 31.8904 -73.1321 262° West 469 540 34,000  Level FlightAware Transoceanic
12:44PM 31.8717 -73.2817 262° West 469 540 34,000  Level FlightAware Transoceanic
12:45PM 31.8529 -73.4312 262° West 469 540 34,000  Level FlightAware Transoceanic
12:46PM 31.8340 -73.5807 261° West 469 540 34,000  Level FlightAware Transoceanic
12:47PM 31.8200 -73.7044 261° West 468 539 34,000  Level FlightAware Transoceanic
12:48PM 31.8004 -73.8549 261° West 468 539 34,000  Level FlightAware Transoceanic
12:48PM 31.8000 -73.8500 261° West 472 543 34,000  Level New York Oceanic (ODAPS)
12:49PM 31.7807 -74.0053 261° West 468 539 34,000  Level FlightAware Transoceanic
12:49PM 31.7667 -74.0667 261° West 472 543 34,000  Level New York Oceanic (ODAPS)
12:50PM 31.7609 -74.1557 261° West 468 539 34,000  Level FlightAware Transoceanic
12:51PM 31.7408 -74.3060 261° West 468 539 34,000  Level FlightAware Transoceanic
12:52PM 31.7206 -74.4562 261° West 468 539 34,000  Level FlightAware Transoceanic
12:55PM 31.6667 -74.9000 261° West 462 532 34,000  Level New York Oceanic (ODAPS)
01:01PM 31.5167 -75.9000 260° West 473 544 34,000  Level New York Oceanic (ODAPS)
01:06PM 31.4325 -76.6092 260° West 475 547 34,000 -60 Level Jacksonville Center
01:07PM 31.4233 -76.7608 266° West 465 535 33,900 480 Descending Jacksonville Center
01:08PM 31.4942 -76.8900 303° West 443 510 35,000 1,020 Climbing Jacksonville Center
01:09PM 31.5925 -76.9861 320° Northwest 437 503 36,000 480 Climbing Jacksonville Center
01:10PM 31.6972 -77.0794 323° Northwest 451 519 36,000 -60 Level Jacksonville Center
01:11PM 31.8056 -77.1681 325° Northwest 463 533 35,900  Descending Jacksonville Center
01:12PM 31.9000 -77.2722 317° Northwest 463 533 36,000  Climbing Jacksonville Center
01:13PM 32.0025 -77.3736 320° Northwest 473 544 36,000  Level Jacksonville Center
01:19PM 32.3650 -78.1980 320° Northwest 473 544 36,000  Level FlightAware
01:19PM 32.3920 -78.2830 291° West 472 543 36,000  Level FlightAware
01:20PM 32.4220 -78.3770 291° West 470 541 36,000  Level FlightAware
01:21PM 32.4530 -78.4740 291° West 469 540 36,000  Level FlightAware
01:21PM 32.4850 -78.5720 291° West 469 540 36,000  Level FlightAware
01:22PM 32.5150 -78.6640 291° West 468 539 36,000  Level FlightAware
01:23PM 32.5470 -78.7640 291° West 467 537 36,000  Level FlightAware
01:24PM 32.5790 -78.8630 291° West 467 537 36,000  Level FlightAware
01:24PM 32.6120 -78.9670 291° West 467 537 36,000  Level FlightAware
01:25PM 32.6460 -79.0740 291° West 467 537 36,000  Level FlightAware
01:25PM 32.6650 -79.1330 291° West 466 536 36,000  Level FlightAware
01:26PM 32.7000 -79.2420 291° West 467 537 36,000  Level FlightAware
01:27PM 32.7300 -79.3370 291° West 467 537 36,000  Level FlightAware
01:27PM 32.7530 -79.4110 290° West 467 537 36,000  Level FlightAware
01:28PM 32.7760 -79.4830 291° West 467 537 36,000  Level FlightAware
01:28PM 32.8010 -79.5650 290° West 467 537 36,000  Level FlightAware
01:29PM 32.8350 -79.6720 291° West 466 536 36,000  Level FlightAware
01:30PM 32.8650 -79.7670 291° West 466 536 36,000  Level FlightAware
01:31PM 32.8980 -79.8740 290° West 466 536 36,000  Level FlightAware
01:31PM 32.9280 -79.9740 290° West 464 534 36,000  Level FlightAware
01:32PM 32.9550 -80.0850 286° West 461 531 36,000  Level FlightAware
01:33PM 32.9620 -80.1880 275° West 461 531 36,000  Level FlightAware
01:33PM 32.9660 -80.2680 273° West 460 529 36,000  Level FlightAware
01:34PM 32.9710 -80.3880 273° West 460 529 36,000  Level FlightAware
01:35PM 32.9760 -80.4900 273° West 460 529 36,000  Level FlightAware
01:35PM 32.9800 -80.5970 273° West 460 529 36,000  Level FlightAware
01:36PM 32.9840 -80.6970 273° West 460 529 36,000  Level FlightAware
01:37PM 32.9880 -80.8120 272° West 459 528 36,000  Level FlightAware
01:37PM 32.9920 -80.9120 273° West 458 527 36,000  Level FlightAware
01:38PM 32.9950 -80.9970 272° West 457 526 36,000  Level FlightAware
01:39PM 32.9990 -81.1010 273° West 456 525 36,000  Level FlightAware
01:39PM 33.0030 -81.2140 272° West 455 524 36,000  Level FlightAware
01:40PM 33.0060 -81.3120 272° West 454 522 36,000  Level FlightAware
01:41PM 33.0100 -81.4240 272° West 455 524 36,000  Level FlightAware
01:42PM 33.0150 -81.5820 272° West 454 522 36,000  Level FlightAware
01:42PM 33.0170 -81.6560 272° West 455 524 36,000  Level FlightAware
01:43PM 33.0200 -81.7350 273° West 455 524 36,000  Level FlightAware
01:44PM 33.0220 -81.8300 271° West 456 525 36,000 -120 Level FlightAware
01:44PM 33.0250 -81.9300 272° West 456 525 35,900 -720 Descending FlightAware
01:45PM 33.0290 -82.0490 272° West 461 531 35,000 -660 Descending FlightAware
01:46PM 33.0310 -82.1460 271° West 462 532 35,000 -660 Level FlightAware
01:46PM 33.0350 -82.2650 272° West 462 532 34,100 -1,980 Descending FlightAware
01:47PM 33.0390 -82.3480 273° West 469 540 32,400 -3,000 Descending FlightAware
01:48PM 33.0490 -82.4540 276° West 472 543 30,400 -2,940 Descending FlightAware
01:48PM 33.0620 -82.5720 278° West 470 541 28,300 -2,820 Descending FlightAware
01:49PM 33.0720 -82.6560 278° West 468 539 26,700 -2,400 Descending FlightAware
01:50PM 33.0860 -82.7750 278° West 452 520 25,100 -1,800 Descending FlightAware
01:50PM 33.0970 -82.8720 278° West 441 507 24,200 -1,320 Descending FlightAware
01:51PM 33.0980 -82.8840 276° West 434 499 23,300 -1,200 Descending FlightAware
01:52PM 33.1170 -83.0600 277° West 428 493 22,600 -1,800 Descending FlightAware
01:53PM 33.1290 -83.1670 278° West 417 480 20,900 -2,280 Descending FlightAware
01:53PM 33.1380 -83.2460 278° West 410 472 19,600 -2,280 Descending FlightAware
01:54PM 33.1480 -83.3450 277° West 400 460 17,800 -2,280 Descending FlightAware
01:55PM 33.1580 -83.4400 277° West 391 450 16,300 -2,220 Descending FlightAware
01:55PM 33.1650 -83.5010 278° West 386 444 15,200 -2,160 Descending FlightAware
01:56PM 33.1720 -83.5740 277° West 378 435 14,000 -1,980 Descending FlightAware
01:56PM 33.1800 -83.6440 278° West 369 425 12,900 -1,440 Descending FlightAware
01:57PM 33.1860 -83.7010 277° West 346 398 12,500 -600 Descending FlightAware
01:57PM 33.1940 -83.7770 277° West 313 360 12,200 -420 Descending FlightAware
01:58PM 33.2110 -83.8580 284° West 293 337 11,900 -240 Descending FlightAware
01:59PM 33.2250 -83.9040 290° West 293 337 11,900 -1,320 Level FlightAware
02:00PM 33.2740 -83.9440 326° Northwest 237 273 10,300 -2,280 Descending FlightAware
02:00PM 33.2840 -83.9590 309° West 230 265 9,900 -1,740 Descending FlightAware
02:00PM 33.3010 -83.9850 308° West 227 261 9,100 -1,920 Descending FlightAware
02:01PM 33.3140 -84.0040 309° West 229 264 8,500 -1,500 Descending FlightAware
02:01PM 33.3330 -84.0330 308° West 229 264 7,900 -660 Descending FlightAware
02:01PM 33.3510 -84.0580 311° West 226 260 7,900  Level FlightAware
02:02PM 33.3570 -84.0610 337° Northwest 229 264 7,900  Level FlightAware
02:03PM 33.4010 -84.0140 42° Northeast 260 299 7,900  Level FlightAware
02:03PM 33.4030 -83.9780 86° East 245 282 7,900  Level FlightAware
02:03PM 33.4090 -83.9640 63° Northeast 232 267 7,900  Level FlightAware
02:03PM 33.4200 -83.9550 34° Northeast 225 259 7,900  Level FlightAware
02:04PM 33.4300 -83.9530 North 218 251 7,900  Level FlightAware
02:04PM 33.4500 -83.9560 353° North 221 254 7,900  Level FlightAware
02:04PM 33.4800 -83.9620 351° North 217 250 7,900 -120 Level FlightAware
02:05PM 33.5030 -83.9700 344° North 211 243 7,800 -660 Descending FlightAware
02:05PM 33.5170 -83.9750 343° North 208 239 7,500 -1,200 Descending FlightAware
02:06PM 33.5440 -83.9870 340° North 205 236 6,900 -720 Descending FlightAware
02:06PM 33.5650 -83.9960 340° North 207 238 6,900  Level FlightAware
02:06PM 33.5840 -84.0040 341° North 210 242 6,900  Level FlightAware
02:07PM 33.5950 -84.0190 311° West 212 244 6,900  Level FlightAware
02:07PM 33.6090 -84.0500 298° West 224 258 6,900  Level FlightAware
02:07PM 33.6130 -84.0640 289° West 220 253 6,900 -300 Level FlightAware
02:07PM 33.6140 -84.0790 275° West 222 255 6,800 -1,140 Descending FlightAware
02:08PM 33.6150 -84.1170 272° West 217 250 6,100 -1,320 Descending FlightAware
02:08PM 33.6150 -84.1510 270° West 219 252 5,500 -1,200 Descending FlightAware
02:09PM 33.6140 -84.1660 265° West 217 250 5,300 -1,080 Descending FlightAware
02:09PM 33.6140 -84.1860 270° West 195 224 5,000 -1,080 Descending FlightAware
02:09PM 33.6150 -84.2150 272° West 182 209 4,500 -960 Descending FlightAware
02:10PM 33.6150 -84.2520 270° West 182 209 4,000 -900 Descending FlightAware
02:10PM 33.6150 -84.2760 270° West 187 215 3,600 -1,020 Descending FlightAware
02:11PM 33.6160 -84.3010 273° West 185 213 3,200 -1,020 Descending FlightAware
02:11PM 33.6160 -84.3250 270° West 180 207 2,800 -960 Descending FlightAware
02:12PM 33.6160 -84.3500 270° West 175 201 2,400 -780 Descending FlightAware
02:12PM 33.6160 -84.3770 270° West 153 176 2,100 -720 Descending FlightAware
02:13PM 33.6160 -84.3930 270° West 154 177 1,800 -840 Descending FlightAware
02:13PM 33.6170 -84.4270 272° West 153 176 1,300 -840 Descending FlightAware
02:14PM 33.6170 -84.4510 270° West 154 177 900 -900 Descending FlightAware
02:14PM 33.6170 -84.4700 270° West 35 40 -1,620 Descending FlightAware
02:14PM 33.6180 -84.4720 301° West 25 29  Level FlightAware
02:15PM 33.6190 -84.4740 301° West 22 25  Level FlightAware
02:15PM 33.6200 -84.4760 301° West 22 25  Level FlightAware
02:15PM 33.6200 -84.4780 270° West 19 22  Level FlightAware
02:16PM 33.6210 -84.4790 320° Northwest 13 15  Level FlightAware